Time;durP1;ratioP1;P1;durP2;ratioP2;P2;SDS_P1;SDS_P2;PMS_P1;PMS_P2;Temp;Humidity;BMP_temperature;BMP_pressure;BME280_temperature;BME280_humidity;BME280_pressure;Samples;Min_cycle;Max_cycle;Signal;HPM_P1;HPM_P2
2023/05/16 00:02:06;;;;;;;;;;;;;;;;;;5036930;28;20639;-80
2023/05/16 00:04:53;;;;;;;;;;;;;;;;;;5041281;28;19920;-84
2023/05/16 00:07:39;;;;;;;;;;;;;;;;;;5037307;28;19920;-85
2023/05/16 00:10:26;;;;;;;;;;;;;;;;;;5040128;28;19927;-85
2023/05/16 00:13:12;;;;;;;;;;;;;;;;;;5043209;28;19923;-83
2023/05/16 00:16:01;;;;;;;;;;;;;;;;;;5040134;28;19935;-84
2023/05/16 00:18:48;;;;;;;;;;;;;;;;;;5033076;28;19934;-87
2023/05/16 00:21:35;;;;;;;;;;;;;;;;;;5034840;28;20022;-88
2023/05/16 00:24:22;;;;;;;;;;;;;;;;;;5040036;28;19931;-87
2023/05/16 00:27:08;;;;;;;;;;;;;;;;;;5045069;28;19943;-87
2023/05/16 00:29:55;;;;;;;;;;;;;;;;;;5042846;28;19917;-85
2023/05/16 00:32:42;;;;;;;;;;;;;;;;;;5043890;28;20280;-86
2023/05/16 00:35:28;;;;;;;;;;;;;;;;;;5045584;28;19924;-86
2023/05/16 00:38:14;;;;;;;;;;;;;;;;;;5032116;28;19921;-85
2023/05/16 00:41:01;;;;;;;;;;;;;;;;;;5042107;28;19920;-86
2023/05/16 00:43:48;;;;;;;;;;;;;;;;;;5047682;28;20073;-87
2023/05/16 00:46:34;;;;;;;;;;;;;;;;;;5042470;28;19925;-87
2023/05/16 00:49:21;;;;;;;;;;;;;;;;;;5045016;28;19920;-86
2023/05/16 00:52:07;;;;;;;;;;;;;;;;;;5045017;28;19939;-87
2023/05/16 00:54:54;;;;;;;;;;;;;;;;;;5048493;28;20334;-86
2023/05/16 00:57:41;;;;;;;;;;;;;;;;;;5052793;28;19925;-86
2023/05/16 01:00:27;;;;;;;;;;;;;;;;;;5055154;28;19920;-85
2023/05/16 01:03:14;;;;;;;;;;;;;;;;;;5043605;28;19917;-85
2023/05/16 01:06:00;;;;;;;;;;;;;;;;;;5035755;28;20356;-82
2023/05/16 01:08:47;;;;;;;;;;;;;;;;;;5046794;28;19920;-82
2023/05/16 01:11:33;;;;;;;;;;;;;;;;;;5038089;28;19921;-86
2023/05/16 01:14:20;;;;;;;;;;;;;;;;;;5044453;28;19925;-86
2023/05/16 01:17:06;;;;;;;;;;;;;;;;;;5032619;28;20304;-86
2023/05/16 01:19:52;;;;;;;;;;;;;;;;;;5024490;28;19924;-86
2023/05/16 01:22:41;;;;;;;;;;;;;;;;;;5021753;28;19913;-86
2023/05/16 01:25:27;;;;;;;;;;;;;;;;;;5022323;28;19921;-86
2023/05/16 01:28:13;;;;;;;;;;;;;;;;;;5033057;28;20737;-86
2023/05/16 01:31:00;;;;;;;;;;;;;;;;;;5027102;28;19925;-86
2023/05/16 01:33:46;;;;;;;;;;;;;;;;;;5025369;28;20318;-86
2023/05/16 01:36:33;;;;;;;;;;;;;;;;;;5023627;28;20294;-86
2023/05/16 01:39:21;;;;;;;;;;;;;;;;;;5027487;28;20412;-86
2023/05/16 01:42:07;;;;;;;;;;;;;;;;;;5030524;28;19924;-83
2023/05/16 01:44:54;;;;;;;;;;;;;;;;;;5016689;28;19921;-84
2023/05/16 01:47:40;;;;;;;;;;;;;;;;;;5011702;28;19914;-84
2023/05/16 01:50:27;;;;;;;;;;;;;;;;;;5003473;28;19933;-83
2023/05/16 01:53:13;;;;;;;;;;;;;;;;;;5022165;28;20303;-84
2023/05/16 01:56:00;;;;;;;;;;;;;;;;;;5009906;28;19921;-84
2023/05/16 01:58:46;;;;;;;;;;;;;;;;;;5018065;28;19928;-84
2023/05/16 02:01:33;;;;;;;;;;;;;;;;;;5025758;28;19921;-83
2023/05/16 02:04:19;;;;;;;;;;;;;;;;;;5022068;28;19928;-84
2023/05/16 02:07:06;;;;;;;;;;;;;;;;;;5013419;28;19919;-83
2023/05/16 02:09:52;;;;;;;;;;;;;;;;;;5029567;28;20376;-84
2023/05/16 02:12:39;;;;;;;;;;;;;;;;;;5020921;28;20368;-84
2023/05/16 02:15:25;;;;;;;;;;;;;;;;;;5034854;28;20295;-85
2023/05/16 02:18:12;;;;;;;;;;;;;;;;;;5038094;28;20401;-85
2023/05/16 02:20:58;;;;;;;;;;;;;;;;;;5057681;28;20150;-84
2023/05/16 02:23:45;;;;;;;;;;;;;;;;;;5047528;28;20015;-84
2023/05/16 02:26:31;;;;;;;;;;;;;;;;;;5040892;28;19928;-84
2023/05/16 02:29:18;;;;;;;;;;;;;;;;;;5045434;28;19929;-84
2023/05/16 02:32:05;;;;;;;;;;;;;;;;;;5041952;28;19931;-84
2023/05/16 02:34:51;;;;;;;;;;;;;;;;;;5039796;28;20408;-82
2023/05/16 02:37:38;;;;;;;;;;;;;;;;;;5038982;28;19924;-81
2023/05/16 02:40:24;;;;;;;;;;;;;;;;;;5040799;28;19913;-82
2023/05/16 02:43:11;;;;;;;;;;;;;;;;;;5042006;28;20379;-82
2023/05/16 02:45:57;;;;;;;;;;;;;;;;;;5036754;28;19921;-84
2023/05/16 02:48:44;;;;;;;;;;;;;;;;;;5032453;28;19920;-84
2023/05/16 02:51:30;;;;;;;;;;;;;;;;;;5024224;28;20127;-82
2023/05/16 02:54:17;;;;;;;;;;;;;;;;;;5041356;28;20450;-83
2023/05/16 02:57:03;;;;;;;;;;;;;;;;;;5046761;28;19928;-84
2023/05/16 02:59:50;;;;;;;;;;;;;;;;;;5028330;28;20497;-83
2023/05/16 03:02:36;;;;;;;;;;;;;;;;;;5042544;28;19916;-83
2023/05/16 03:05:23;;;;;;;;;;;;;;;;;;5042942;28;19921;-84
2023/05/16 03:08:09;;;;;;;;;;;;;;;;;;5041305;28;19920;-84
2023/05/16 03:10:56;;;;;;;;;;;;;;;;;;5037833;28;19913;-85
2023/05/16 03:13:42;;;;;;;;;;;;;;;;;;5043125;28;19921;-85
2023/05/16 03:16:29;;;;;;;;;;;;;;;;;;5043289;28;20310;-84
2023/05/16 03:19:15;;;;;;;;;;;;;;;;;;5030450;28;19959;-85
2023/05/16 03:22:02;;;;;;;;;;;;;;;;;;5041035;28;19928;-85
2023/05/16 03:24:49;;;;;;;;;;;;;;;;;;5044138;28;19921;-85
2023/05/16 03:27:35;;;;;;;;;;;;;;;;;;5033777;28;19913;-85
2023/05/16 03:30:22;;;;;;;;;;;;;;;;;;5050078;28;19926;-85
2023/05/16 03:33:08;;;;;;;;;;;;;;;;;;5036976;28;19943;-84
2023/05/16 03:35:55;;;;;;;;;;;;;;;;;;5034461;28;19920;-84
2023/05/16 03:38:41;;;;;;;;;;;;;;;;;;5031552;28;19951;-84
2023/05/16 03:41:28;;;;;;;;;;;;;;;;;;5044133;28;19916;-84
2023/05/16 03:44:14;;;;;;;;;;;;;;;;;;5037360;28;19920;-84
2023/05/16 03:47:01;;;;;;;;;;;;;;;;;;5038460;28;19913;-84
2023/05/16 03:49:47;;;;;;;;;;;;;;;;;;5035254;28;20039;-83
2023/05/16 03:52:34;;;;;;;;;;;;;;;;;;5015358;28;19924;-85
2023/05/16 03:55:20;;;;;;;;;;;;;;;;;;5030567;28;19932;-83
2023/05/16 03:58:07;;;;;;;;;;;;;;;;;;5029051;28;19930;-84
2023/05/16 04:00:53;;;;;;;;;;;;;;;;;;5030707;28;20438;-85
2023/05/16 04:03:40;;;;;;;;;;;;;;;;;;5037434;28;21439;-85
2023/05/16 04:06:26;;;;;;;;;;;;;;;;;;5044826;28;19916;-86
2023/05/16 04:09:13;;;;;;;;;;;;;;;;;;5041312;28;20044;-86
2023/05/16 04:12:01;;;;;;;;;;;;;;;;;;5030732;28;20311;-86
2023/05/16 04:14:48;;;;;;;;;;;;;;;;;;5032254;28;19940;-82
2023/05/16 04:17:35;;;;;;;;;;;;;;;;;;5024954;28;20300;-82
2023/05/16 04:20:21;;;;;;;;;;;;;;;;;;5023715;28;20272;-85
2023/05/16 04:23:09;;;;;;;;;;;;;;;;;;5013792;28;20384;-84
2023/05/16 04:25:56;;;;;;;;;;;;;;;;;;5016973;28;20289;-84
2023/05/16 04:28:42;;;;;;;;;;;;;;;;;;5009995;28;19918;-85
2023/05/16 04:31:30;;;;;;;;;;;;;;;;;;5018160;28;19933;-84
2023/05/16 04:34:16;;;;;;;;;;;;;;;;;;5010908;28;19918;-85
2023/05/16 04:37:04;;;;;;;;;;;;;;;;;;5044538;28;19931;-84
2023/05/16 04:39:51;;;;;;;;;;;;;;;;;;5029504;28;20282;-84
2023/05/16 04:42:38;;;;;;;;;;;;;;;;;;5034937;28;19927;-82
2023/05/16 04:45:24;;;;;;;;;;;;;;;;;;5032547;28;19917;-84
2023/05/16 04:48:11;;;;;;;;;;;;;;;;;;5045755;28;19913;-82
2023/05/16 04:50:57;;;;;;;;;;;;;;;;;;5014623;28;19924;-84
2023/05/16 04:53:44;;;;;;;;;;;;;;;;;;5020418;28;19920;-83
2023/05/16 04:56:30;;;;;;;;;;;;;;;;;;5043785;28;19947;-81
2023/05/16 04:59:17;;;;;;;;;;;;;;;;;;5034672;28;19936;-81
2023/05/16 05:02:03;;;;;;;;;;;;;;;;;;5023886;28;19921;-82
2023/05/16 05:04:50;;;;;;;;;;;;;;;;;;5036408;28;19927;-82
2023/05/16 05:07:37;;;;;;;;;;;;;;;;;;5032507;28;19917;-80
2023/05/16 05:10:23;;;;;;;;;;;;;;;;;;5034123;28;19919;-80
2023/05/16 05:13:10;;;;;;;;;;;;;;;;;;5040848;28;20382;-81
2023/05/16 05:15:56;;;;;;;;;;;;;;;;;;5035442;28;19933;-80
2023/05/16 05:18:43;;;;;;;;;;;;;;;;;;5034346;28;20392;-80
2023/05/16 05:21:30;;;;;;;;;;;;;;;;;;5042000;28;19923;-80
2023/05/16 05:24:16;;;;;;;;;;;;;;;;;;5039876;28;19917;-80
2023/05/16 05:27:03;;;;;;;;;;;;;;;;;;5027655;28;19916;-80
2023/05/16 05:29:49;;;;;;;;;;;;;;;;;;5039578;28;19917;-80
2023/05/16 05:32:36;;;;;;;;;;;;;;;;;;5040635;28;19958;-80
2023/05/16 05:35:22;;;;;;;;;;;;;;;;;;5046895;28;19932;-82
2023/05/16 05:38:09;;;;;;;;;;;;;;;;;;5035756;28;19924;-81
2023/05/16 05:40:55;;;;;;;;;;;;;;;;;;5048314;28;19912;-81
2023/05/16 05:43:42;;;;;;;;;;;;;;;;;;5042424;28;19924;-81
2023/05/16 05:46:28;;;;;;;;;;;;;;;;;;5035787;28;19927;-81
2023/05/16 05:49:15;;;;;;;;;;;;;;;;;;5041396;28;19924;-80
2023/05/16 05:52:02;;;;;;;;;;;;;;;;;;5044975;28;19925;-81
2023/05/16 05:54:48;;;;;;;;;;;;;;;;;;5037507;28;20340;-79
2023/05/16 05:57:34;;;;;;;;;;;;;;;;;;5037430;28;19940;-80
2023/05/16 06:00:21;;;;;;;;;;;;;;;;;;5038169;28;19921;-79
2023/05/16 06:03:08;;;;;;;;;;;;;;;;;;5034251;28;19921;-81
2023/05/16 06:05:54;;;;;;;;;;;;;;;;;;5041375;28;19924;-89
2023/05/16 06:08:41;;;;;;;;;;;;;;;;;;5033195;28;19921;-86
2023/05/16 06:11:27;;;;;;;;;;;;;;;;;;5031873;28;19921;-86
2023/05/16 06:14:15;;;;;;;;;;;;;;;;;;5040067;28;19933;-86
2023/05/16 06:17:01;;;;;;;;;;;;;;;;;;5041544;28;19917;-86
2023/05/16 06:19:48;;;;;;;;;;;;;;;;;;5040905;28;19944;-86
2023/05/16 06:22:34;;;;;;;;;;;;;;;;;;5044126;28;19917;-86
2023/05/16 06:25:21;;;;;;;;;;;;;;;;;;5039397;28;20376;-86
2023/05/16 06:28:07;;;;;;;;;;;;;;;;;;5037873;28;19921;-85
2023/05/16 06:30:54;;;;;;;;;;;;;;;;;;5041335;28;19932;-86
2023/05/16 06:33:40;;;;;;;;;;;;;;;;;;5039065;28;19936;-86
2023/05/16 06:36:27;;;;;;;;;;;;;;;;;;5020092;28;19929;-87
2023/05/16 06:39:13;;;;;;;;;;;;;;;;;;5037067;28;19939;-87
2023/05/16 06:42:00;;;;;;;;;;;;;;;;;;5039554;28;19925;-88
2023/05/16 06:44:46;;;;;;;;;;;;;;;;;;5041695;28;19917;-87
2023/05/16 06:47:33;;;;;;;;;;;;;;;;;;5037341;28;19921;-88
2023/05/16 06:50:19;;;;;;;;;;;;;;;;;;5043206;28;19921;-88
2023/05/16 06:53:06;;;;;;;;;;;;;;;;;;5043212;28;20284;-87
2023/05/16 06:55:52;;;;;;;;;;;;;;;;;;5042006;28;19924;-86
2023/05/16 06:58:39;;;;;;;;;;;;;;;;;;5038979;28;20296;-86
2023/05/16 07:01:25;;;;;;;;;;;;;;;;;;5042050;28;19925;-86
2023/05/16 07:04:12;;;;;;;;;;;;;;;;;;5042943;28;19928;-87
2023/05/16 07:06:59;;;;;;;;;;;;;;;;;;5022835;28;19928;-87
2023/05/16 07:09:45;;;;;;;;;;;;;;;;;;5039147;28;19928;-87
2023/05/16 07:12:32;;;;;;;;;;;;;;;;;;5038097;28;19932;-86
2023/05/16 07:15:18;;;;;;;;;;;;;;;;;;5042809;28;19928;-86
2023/05/16 07:18:05;;;;;;;;;;;;;;;;;;5043693;28;21512;-87
2023/05/16 07:20:51;;;;;;;;;;;;;;;;;;5039366;28;19932;-86
2023/05/16 07:23:38;;;;;;;;;;;;;;;;;;5045879;28;19952;-87
2023/05/16 07:26:25;;;;;;;;;;;;;;;;;;5034508;28;20253;-86
2023/05/16 07:29:12;;;;;;;;;;;;;;;;;;5041954;28;19919;-86
2023/05/16 07:31:58;;;;;;;;;;;;;;;;;;5038237;28;19921;-86
2023/05/16 07:34:45;;;;;;;;;;;;;;;;;;5045008;28;20384;-87
2023/05/16 07:37:31;;;;;;;;;;;;;;;;;;5043283;28;20513;-86
2023/05/16 07:40:20;;;;;;;;;;;;;;;;;;5034513;28;19925;-86
2023/05/16 07:43:06;;;;;;;;;;;;;;;;;;5042033;28;19916;-85
2023/05/16 07:45:52;;;;;;;;;;;;;;;;;;5045002;28;19920;-86
2023/05/16 07:48:39;;;;;;;;;;;;;;;;;;5038961;28;19917;-88
2023/05/16 07:51:25;;;;;;;;;;;;;;;;;;5036353;28;19925;-88
2023/05/16 07:54:12;;;;;;;;;;;;;;;;;;5041580;28;20585;-87
2023/05/16 07:56:58;;;;;;;;;;;;;;;;;;5037507;28;19921;-87
2023/05/16 07:59:45;;;;;;;;;;;;;;;;;;5029422;28;19936;-88
2023/05/16 08:02:32;;;;;;;;;;;;;;;;;;5026746;28;19917;-88
2023/05/16 08:05:18;;;;;;;;;;;;;;;;;;5051639;28;19920;-87
2023/05/16 08:08:05;;;;;;;;;;;;;;;;;;5040080;28;19924;-88
2023/05/16 08:10:51;;;;;;;;;;;;;;;;;;5038658;28;19921;-87
2023/05/16 08:13:38;;;;;;;;;;;;;;;;;;5023226;28;20185;-87
2023/05/16 08:16:24;;;;;;;;;;;;;;;;;;5038113;28;19929;-87
2023/05/16 08:19:11;;;;;;;;;;;;;;;;;;5039739;28;19936;-86
2023/05/16 08:21:57;;;;;;;;;;;;;;;;;;5032357;28;20259;-86
2023/05/16 08:24:44;;;;;;;;;;;;;;;;;;5035767;28;19986;-86
2023/05/16 08:27:30;;;;;;;;;;;;;;;;;;5029079;28;19921;-86
2023/05/16 08:30:17;;;;;;;;;;;;;;;;;;5033189;28;19917;-88
2023/05/16 08:33:04;;;;;;;;;;;;;;;;;;5043379;28;19924;-86
2023/05/16 08:35:53;;;;;;;;;;;;;;;;;;5038490;28;19932;-84
2023/05/16 08:38:40;;;;;;;;;;;;;;;;;;5046562;28;19933;-84
2023/05/16 08:41:26;;;;;;;;;;;;;;;;;;5036592;28;19925;-84
2023/05/16 08:44:20;;;;;;;;;;;;;;;;;;5035977;28;19921;-87
2023/05/16 08:47:06;;;;;;;;;;;;;;;;;;5039656;28;19954;-82
2023/05/16 08:49:52;;;;;;;;;;;;;;;;;;5034265;28;19984;-84
2023/05/16 08:52:39;;;;;;;;;;;;;;;;;;5038446;28;19916;-85
2023/05/16 08:55:26;;;;;;;;;;;;;;;;;;5036318;28;19941;-84
2023/05/16 08:58:12;;;;;;;;;;;;;;;;;;5042081;28;19925;-84
2023/05/16 09:00:59;;;;;;;;;;;;;;;;;;5026931;28;19921;-84
2023/05/16 09:03:45;;;;;;;;;;;;;;;;;;5039320;28;20452;-84
2023/05/16 09:06:31;;;;;;;;;;;;;;;;;;5049128;28;19916;-83
2023/05/16 09:09:18;;;;;;;;;;;;;;;;;;5033221;28;20297;-83
2023/05/16 09:12:05;;;;;;;;;;;;;;;;;;5037141;28;19921;-83
2023/05/16 09:14:51;;;;;;;;;;;;;;;;;;5048371;28;20436;-85
2023/05/16 09:17:38;;;;;;;;;;;;;;;;;;5041703;28;19923;-84
2023/05/16 09:20:25;;;;;;;;;;;;;;;;;;5040691;28;20311;-83
2023/05/16 09:23:11;;;;;;;;;;;;;;;;;;5034227;28;19921;-84
2023/05/16 09:25:58;;;;;;;;;;;;;;;;;;5043840;28;19921;-84
2023/05/16 09:28:50;;;;;;;;;;;;;;;;;;5045687;28;19940;-84
2023/05/16 09:31:37;;;;;;;;;;;;;;;;;;5042578;28;19927;-84
2023/05/16 09:34:23;;;;;;;;;;;;;;;;;;5047817;28;20380;-84
2023/05/16 09:37:10;;;;;;;;;;;;;;;;;;5041340;28;20365;-83
2023/05/16 09:39:57;;;;;;;;;;;;;;;;;;5046315;28;19925;-83
2023/05/16 09:42:43;;;;;;;;;;;;;;;;;;5042634;28;19924;-84
2023/05/16 09:45:30;;;;;;;;;;;;;;;;;;5049959;28;20355;-84
2023/05/16 09:48:16;;;;;;;;;;;;;;;;;;5041801;28;19935;-83
2023/05/16 09:51:03;;;;;;;;;;;;;;;;;;5046062;28;19932;-83
2023/05/16 09:53:50;;;;;;;;;;;;;;;;;;5035025;28;19921;-84
2023/05/16 09:56:36;;;;;;;;;;;;;;;;;;5033498;28;19917;-84
2023/05/16 09:59:23;;;;;;;;;;;;;;;;;;5040140;28;20308;-84
2023/05/16 10:02:09;;;;;;;;;;;;;;;;;;5038799;28;19924;-83
2023/05/16 10:04:56;;;;;;;;;;;;;;;;;;5036943;28;19917;-84
2023/05/16 10:07:42;;;;;;;;;;;;;;;;;;5036058;28;19928;-84
2023/05/16 10:10:29;;;;;;;;;;;;;;;;;;5044816;28;19927;-83
2023/05/16 10:13:15;;;;;;;;;;;;;;;;;;5045861;28;19917;-83
2023/05/16 10:16:02;;;;;;;;;;;;;;;;;;5036171;28;19933;-86
2023/05/16 10:18:48;;;;;;;;;;;;;;;;;;5039363;28;20512;-86
2023/05/16 10:21:35;;;;;;;;;;;;;;;;;;5037306;28;19928;-86
2023/05/16 10:24:21;;;;;;;;;;;;;;;;;;5036398;28;19929;-86
2023/05/16 10:27:08;;;;;;;;;;;;;;;;;;5041584;28;20033;-87
2023/05/16 10:29:55;;;;;;;;;;;;;;;;;;5054077;28;20411;-86
2023/05/16 10:32:42;;;;;;;;;;;;;;;;;;5037746;28;19917;-87
2023/05/16 10:35:28;;;;;;;;;;;;;;;;;;5044546;28;19946;-87
2023/05/16 10:38:15;;;;;;;;;;;;;;;;;;5037659;28;19921;-86
2023/05/16 10:41:01;;;;;;;;;;;;;;;;;;5044531;28;19921;-86
2023/05/16 10:43:48;;;;;;;;;;;;;;;;;;5046743;28;20402;-86
2023/05/16 10:46:34;;;;;;;;;;;;;;;;;;5041537;28;20402;-87
2023/05/16 10:49:21;;;;;;;;;;;;;;;;;;5040955;28;19973;-87
2023/05/16 10:52:08;;;;;;;;;;;;;;;;;;5035735;28;20329;-87
2023/05/16 10:54:55;;;;;;;;;;;;;;;;;;5033090;28;19921;-87
2023/05/16 10:57:42;;;;;;;;;;;;;;;;;;5039994;28;19921;-87
2023/05/16 11:00:28;;;;;;;;;;;;;;;;;;5036209;28;19944;-86
2023/05/16 11:03:16;;;;;;;;;;;;;;;;;;5046386;28;19920;-86
2023/05/16 11:06:02;;;;;;;;;;;;;;;;;;5061196;28;20308;-87
2023/05/16 11:08:48;;;;;;;;;;;;;;;;;;5047524;28;19917;-87
2023/05/16 11:11:35;;;;;;;;;;;;;;;;;;5032141;28;19917;-87
2023/05/16 11:14:22;;;;;;;;;;;;;;;;;;5037257;28;19939;-87
2023/05/16 11:17:08;;;;;;;;;;;;;;;;;;5040244;28;19968;-87
2023/05/16 11:19:57;;;;;;;;;;;;;;;;;;5038597;28;19929;-87
2023/05/16 11:22:45;;;;;;;;;;;;;;;;;;5035311;28;19923;-87
2023/05/16 11:25:31;;;;;;;;;;;;;;;;;;5029470;28;19913;-87
2023/05/16 11:28:21;;;;;;;;;;;;;;;;;;5042696;28;19927;-86
2023/05/16 11:31:08;;;;;;;;;;;;;;;;;;5027566;28;19917;-85
2023/05/16 11:33:54;;;;;;;;;;;;;;;;;;5042565;28;20291;-86
2023/05/16 11:36:41;;;;;;;;;;;;;;;;;;5044818;28;20288;-87
2023/05/16 11:39:27;;;;;;;;;;;;;;;;;;5019306;28;19944;-87
2023/05/16 11:42:14;;;;;;;;;;;;;;;;;;5032060;28;20270;-88
2023/05/16 11:45:00;;;;;;;;;;;;;;;;;;5040956;28;19921;-87
2023/05/16 11:47:47;;;;;;;;;;;;;;;;;;5037867;28;19932;-87
2023/05/16 11:50:34;;;;;;;;;;;;;;;;;;5025612;28;19917;-87
2023/05/16 11:53:21;;;;;;;;;;;;;;;;;;5035721;28;19928;-87
2023/05/16 11:56:07;;;;;;;;;;;;;;;;;;5032490;28;19927;-87
2023/05/16 11:58:54;;;;;;;;;;;;;;;;;;5035488;28;20286;-87
2023/05/16 12:01:41;;;;;;;;;;;;;;;;;;5040312;28;19927;-86
2023/05/16 12:04:28;;;;;;;;;;;;;;;;;;5039579;28;19944;-87
2023/05/16 12:07:14;;;;;;;;;;;;;;;;;;5031141;28;19924;-87
2023/05/16 12:10:00;;;;;;;;;;;;;;;;;;5041317;28;20392;-87
2023/05/16 12:12:47;;;;;;;;;;;;;;;;;;5040127;28;19925;-87
2023/05/16 12:15:33;;;;;;;;;;;;;;;;;;5040399;28;19933;-88
2023/05/16 12:18:20;;;;;;;;;;;;;;;;;;5036664;28;20361;-88
2023/05/16 12:21:07;;;;;;;;;;;;;;;;;;5039450;28;19932;-86
2023/05/16 12:23:53;;;;;;;;;;;;;;;;;;5030893;28;20296;-87
2023/05/16 12:26:41;;;;;;;;;;;;;;;;;;5046282;28;19928;-87
2023/05/16 12:29:28;;;;;;;;;;;;;;;;;;5045532;28;19927;-87
2023/05/16 12:32:14;;;;;;;;;;;;;;;;;;5037025;28;19919;-87
2023/05/16 12:35:01;;;;;;;;;;;;;;;;;;5031344;28;19917;-87
2023/05/16 12:37:48;;;;;;;;;;;;;;;;;;5031187;28;19921;-87
2023/05/16 12:40:35;;;;;;;;;;;;;;;;;;5034209;28;19925;-87
2023/05/16 12:43:22;;;;;;;;;;;;;;;;;;5040075;28;19921;-87
2023/05/16 12:46:08;;;;;;;;;;;;;;;;;;5027956;28;19940;-87
2023/05/16 12:48:55;;;;;;;;;;;;;;;;;;5045820;28;20398;-88
2023/05/16 12:51:41;;;;;;;;;;;;;;;;;;5036836;28;19924;-88
2023/05/16 12:54:28;;;;;;;;;;;;;;;;;;5043059;28;19928;-87
2023/05/16 12:57:14;;;;;;;;;;;;;;;;;;5040102;28;20387;-88
2023/05/16 13:00:01;;;;;;;;;;;;;;;;;;5033929;28;20319;-87
2023/05/16 13:02:47;;;;;;;;;;;;;;;;;;5046475;28;19928;-87
2023/05/16 13:05:34;;;;;;;;;;;;;;;;;;5039058;28;19921;-87
2023/05/16 13:08:21;;;;;;;;;;;;;;;;;;5034792;28;19917;-87
2023/05/16 13:11:07;;;;;;;;;;;;;;;;;;5044504;28;19921;-85
2023/05/16 13:13:54;;;;;;;;;;;;;;;;;;5036380;28;19924;-87
2023/05/16 13:16:40;;;;;;;;;;;;;;;;;;5040427;28;20429;-86
2023/05/16 13:19:27;;;;;;;;;;;;;;;;;;5032560;28;19936;-86
2023/05/16 13:22:13;;;;;;;;;;;;;;;;;;5047137;28;20293;-86
2023/05/16 13:25:00;;;;;;;;;;;;;;;;;;5044265;28;19917;-87
2023/05/16 13:27:48;;;;;;;;;;;;;;;;;;5044111;28;19939;-87
2023/05/16 13:30:34;;;;;;;;;;;;;;;;;;5040942;28;19929;-86
2023/05/16 13:33:21;;;;;;;;;;;;;;;;;;5050895;28;19921;-87
2023/05/16 13:36:08;;;;;;;;;;;;;;;;;;5042291;28;20485;-86
2023/05/16 13:38:55;;;;;;;;;;;;;;;;;;5045860;28;20377;-87
2023/05/16 13:41:41;;;;;;;;;;;;;;;;;;5043092;28;20279;-84
2023/05/16 13:44:28;;;;;;;;;;;;;;;;;;5046682;28;20661;-88
2023/05/16 13:47:14;;;;;;;;;;;;;;;;;;5031965;28;20516;-83
2023/05/16 13:50:04;;;;;;;;;;;;;;;;;;5037792;28;19925;-85
2023/05/16 13:52:51;;;;;;;;;;;;;;;;;;5037983;28;19917;-86
2023/05/16 13:55:37;;;;;;;;;;;;;;;;;;5038997;28;20274;-85
2023/05/16 13:58:24;;;;;;;;;;;;;;;;;;5030625;28;19921;-84
2023/05/16 14:01:12;;;;;;;;;;;;;;;;;;5028114;28;19940;-87
2023/05/16 14:03:58;;;;;;;;;;;;;;;;;;5042703;28;20659;-87
2023/05/16 14:06:45;;;;;;;;;;;;;;;;;;5054792;28;19913;-88
2023/05/16 14:09:33;;;;;;;;;;;;;;;;;;5045525;28;19927;-88
2023/05/16 14:12:20;;;;;;;;;;;;;;;;;;5032052;28;20380;-87
2023/05/16 14:15:06;;;;;;;;;;;;;;;;;;5031426;28;19935;-85
2023/05/16 14:17:53;;;;;;;;;;;;;;;;;;5045327;28;19924;-87
2023/05/16 14:20:39;;;;;;;;;;;;;;;;;;5048470;28;19932;-87
2023/05/16 14:23:26;;;;;;;;;;;;;;;;;;5038174;28;22791;-87
2023/05/16 14:26:12;;;;;;;;;;;;;;;;;;5044815;28;20019;-86
2023/05/16 14:28:59;;;;;;;;;;;;;;;;;;5044774;28;19925;-89
2023/05/16 14:31:46;;;;;;;;;;;;;;;;;;5042151;28;19923;-91
2023/05/16 14:34:32;;;;;;;;;;;;;;;;;;5039988;28;19993;-91
2023/05/16 14:37:19;;;;;;;;;;;;;;;;;;5050701;28;19920;-91
2023/05/16 14:40:05;;;;;;;;;;;;;;;;;;5053149;28;19974;-91
2023/05/16 14:42:52;;;;;;;;;;;;;;;;;;5038360;28;19948;-87
2023/05/16 14:45:39;;;;;;;;;;;;;;;;;;5029478;28;19917;-88
2023/05/16 14:48:25;;;;;;;;;;;;;;;;;;5037101;28;20280;-88
2023/05/16 14:51:12;;;;;;;;;;;;;;;;;;5030243;28;19927;-89
2023/05/16 14:53:58;;;;;;;;;;;;;;;;;;5051195;28;19921;-92
2023/05/16 14:56:45;;;;;;;;;;;;;;;;;;5040817;28;19921;-91
2023/05/16 14:59:31;;;;;;;;;;;;;;;;;;5035247;28;19939;-86
2023/05/16 15:02:18;;;;;;;;;;;;;;;;;;5037664;28;20036;-85
2023/05/16 15:05:05;;;;;;;;;;;;;;;;;;5042161;28;19924;-85
2023/05/16 15:07:52;;;;;;;;;;;;;;;;;;5041402;28;19917;-85
2023/05/16 15:10:38;;;;;;;;;;;;;;;;;;5042923;28;19927;-84
2023/05/16 15:13:25;;;;;;;;;;;;;;;;;;5024698;28;19917;-84
2023/05/16 15:16:11;;;;;;;;;;;;;;;;;;5050680;28;19935;-84
2023/05/16 15:18:58;;;;;;;;;;;;;;;;;;5042812;28;20029;-87
2023/05/16 15:21:44;;;;;;;;;;;;;;;;;;5042779;28;20585;-84
2023/05/16 15:24:31;;;;;;;;;;;;;;;;;;5038603;28;20602;-88
2023/05/16 15:27:17;;;;;;;;;;;;;;;;;;5041932;28;19925;-87
2023/05/16 15:30:04;;;;;;;;;;;;;;;;;;5033365;28;19921;-87
2023/05/16 15:32:50;;;;;;;;;;;;;;;;;;5052278;28;19920;-85
2023/05/16 15:35:37;;;;;;;;;;;;;;;;;;5047762;28;20356;-87
2023/05/16 15:38:23;;;;;;;;;;;;;;;;;;5039776;28;20402;-88
2023/05/16 15:41:10;;;;;;;;;;;;;;;;;;5033912;28;19925;-84
2023/05/16 15:43:57;;;;;;;;;;;;;;;;;;5036451;28;19916;-85
2023/05/16 15:46:43;;;;;;;;;;;;;;;;;;5027985;28;19925;-87
2023/05/16 15:49:30;;;;;;;;;;;;;;;;;;5041100;28;19928;-89
2023/05/16 15:52:17;;;;;;;;;;;;;;;;;;5044686;28;19927;-88
2023/05/16 15:55:03;;;;;;;;;;;;;;;;;;5042991;28;19916;-88
2023/05/16 15:57:50;;;;;;;;;;;;;;;;;;5039555;28;19917;-87
2023/05/16 16:00:38;;;;;;;;;;;;;;;;;;5041314;28;19936;-88
2023/05/16 16:03:24;;;;;;;;;;;;;;;;;;5036003;28;20262;-86
2023/05/16 16:06:11;;;;;;;;;;;;;;;;;;5033697;28;20296;-86
2023/05/16 16:08:57;;;;;;;;;;;;;;;;;;5022535;28;19927;-86
2023/05/16 16:11:44;;;;;;;;;;;;;;;;;;5044458;28;19920;-87
2023/05/16 16:14:30;;;;;;;;;;;;;;;;;;5035056;28;19928;-86
2023/05/16 16:17:17;;;;;;;;;;;;;;;;;;5036424;28;19931;-87
2023/05/16 16:20:03;;;;;;;;;;;;;;;;;;5014373;28;19932;-86
2023/05/16 16:22:50;;;;;;;;;;;;;;;;;;5041493;28;19928;-85
2023/05/16 16:25:36;;;;;;;;;;;;;;;;;;5050428;28;20299;-87
2023/05/16 16:28:23;;;;;;;;;;;;;;;;;;5036179;28;19928;-85
2023/05/16 16:31:09;;;;;;;;;;;;;;;;;;5039856;28;19956;-87
2023/05/16 16:33:56;;;;;;;;;;;;;;;;;;5035630;28;19921;-87
2023/05/16 16:36:42;;;;;;;;;;;;;;;;;;5042728;28;19925;-86
2023/05/16 16:39:29;;;;;;;;;;;;;;;;;;5041787;28;19935;-90
2023/05/16 16:42:15;;;;;;;;;;;;;;;;;;5050240;28;19921;-90
2023/05/16 16:45:02;;;;;;;;;;;;;;;;;;5038766;28;19921;-83
2023/05/16 16:47:48;;;;;;;;;;;;;;;;;;5031743;28;19925;-89
2023/05/16 16:50:35;;;;;;;;;;;;;;;;;;5032384;28;19917;-88
2023/05/16 16:53:21;;;;;;;;;;;;;;;;;;5043569;28;19921;-88
2023/05/16 16:56:08;;;;;;;;;;;;;;;;;;5037107;28;19920;-88
2023/05/16 16:58:55;;;;;;;;;;;;;;;;;;5025282;28;19924;-89
2023/05/16 17:01:41;;;;;;;;;;;;;;;;;;5035057;28;19923;-87
2023/05/16 17:04:28;;;;;;;;;;;;;;;;;;5033976;28;19928;-88
2023/05/16 17:07:14;;;;;;;;;;;;;;;;;;5036645;28;20032;-90
2023/05/16 17:10:03;;;;;;;;;;;;;;;;;;5045469;28;19932;-87
2023/05/16 17:12:50;;;;;;;;;;;;;;;;;;5042686;28;19924;-89
2023/05/16 17:15:36;;;;;;;;;;;;;;;;;;5044684;28;19933;-88
2023/05/16 17:18:23;;;;;;;;;;;;;;;;;;5054501;28;19924;-88
2023/05/16 17:21:11;;;;;;;;;;;;;;;;;;5044997;28;19940;-86
2023/05/16 17:23:58;;;;;;;;;;;;;;;;;;5037953;28;19917;-88
2023/05/16 17:26:44;;;;;;;;;;;;;;;;;;5040698;28;19924;-86
2023/05/16 17:29:31;;;;;;;;;;;;;;;;;;5033960;28;19920;-89
2023/05/16 17:32:19;;;;;;;;;;;;;;;;;;5032884;28;19943;-90
2023/05/16 17:35:06;;;;;;;;;;;;;;;;;;5050982;28;20283;-89
2023/05/16 17:37:52;;;;;;;;;;;;;;;;;;5043591;28;20501;-89
2023/05/16 17:40:39;;;;;;;;;;;;;;;;;;5044412;28;19936;-87
2023/05/16 17:43:25;;;;;;;;;;;;;;;;;;5046932;28;19920;-83
2023/05/16 17:46:13;;;;;;;;;;;;;;;;;;5049818;28;19924;-84
2023/05/16 17:48:59;;;;;;;;;;;;;;;;;;5038612;28;19925;-84
2023/05/16 17:51:46;;;;;;;;;;;;;;;;;;5028873;28;19921;-79
2023/05/16 17:54:32;;;;;;;;;;;;;;;;;;5022815;28;19921;-85
2023/05/16 17:57:19;;;;;;;;;;;;;;;;;;5036674;28;19921;-85
2023/05/16 18:00:05;;;;;;;;;;;;;;;;;;5048720;28;19944;-82
2023/05/16 18:02:52;;;;;;;;;;;;;;;;;;5048006;28;19912;-87
2023/05/16 18:05:39;;;;;;;;;;;;;;;;;;5039520;28;19921;-83
2023/05/16 18:08:26;;;;;;;;;;;;;;;;;;5042710;28;19916;-82
2023/05/16 18:11:12;;;;;;;;;;;;;;;;;;5032353;28;20008;-81
2023/05/16 18:13:59;;;;;;;;;;;;;;;;;;5043341;28;19921;-83
2023/05/16 18:16:46;;;;;;;;;;;;;;;;;;5024518;28;19952;-83
2023/05/16 18:19:32;;;;;;;;;;;;;;;;;;5022276;28;19925;-82
2023/05/16 18:22:18;;;;;;;;;;;;;;;;;;5018236;28;19917;-82
2023/05/16 18:25:05;;;;;;;;;;;;;;;;;;5031134;28;19931;-79
2023/05/16 18:27:52;;;;;;;;;;;;;;;;;;5019379;28;19917;-79
2023/05/16 18:30:38;;;;;;;;;;;;;;;;;;5010236;28;20391;-82
2023/05/16 18:33:25;;;;;;;;;;;;;;;;;;5003779;28;19925;-81
2023/05/16 18:36:11;;;;;;;;;;;;;;;;;;5018943;28;19921;-80
2023/05/16 18:38:57;;;;;;;;;;;;;;;;;;5018429;28;20649;-82
2023/05/16 18:41:45;;;;;;;;;;;;;;;;;;5018566;28;19921;-80
2023/05/16 18:44:32;;;;;;;;;;;;;;;;;;5023447;28;19921;-80
2023/05/16 18:47:19;;;;;;;;;;;;;;;;;;5025998;28;20000;-84
2023/05/16 18:50:06;;;;;;;;;;;;;;;;;;5020875;28;19917;-87
2023/05/16 18:52:56;;;;;;;;;;;;;;;;;;5018408;28;20611;-83
2023/05/16 18:55:42;;;;;;;;;;;;;;;;;;5026967;28;20353;-83
2023/05/16 18:58:29;;;;;;;;;;;;;;;;;;5022337;28;19975;-80